createdAt,value
2016-04-04T00:00:48.062Z,0
2016-04-04T00:01:48.065Z,0
2016-04-04T00:02:48.083Z,0
2016-04-04T00:04:02.776Z,0
2016-04-04T00:04:48.292Z,0
2016-04-04T00:05:48.513Z,0
2016-04-04T00:06:48.156Z,0
2016-04-04T00:08:02.615Z,0
2016-04-04T00:08:48.303Z,0
2016-04-04T00:09:48.320Z,0
2016-04-04T00:10:48.089Z,0
2016-04-04T00:11:48.092Z,0
2016-04-04T00:12:48.095Z,0
2016-04-04T00:13:48.113Z,0
2016-04-04T00:14:48.131Z,0
2016-04-04T00:15:48.119Z,0
2016-04-04T00:17:48.124Z,0
2016-04-04T00:18:48.329Z,0
2016-04-04T00:20:02.272Z,0
2016-04-04T00:20:48.147Z,0
2016-04-04T00:21:48.572Z,0
2016-04-04T00:22:48.184Z,0
2016-04-04T00:23:47.671Z,0
2016-04-04T00:24:48.768Z,0
2016-04-04T00:25:47.660Z,0
2016-04-04T00:26:48.413Z,0
2016-04-04T00:27:48.182Z,0
2016-04-04T00:28:48.372Z,0
2016-04-04T00:29:48.156Z,0
2016-04-04T00:30:48.159Z,0
2016-04-04T00:31:49.129Z,0
2016-04-04T00:32:48.429Z,0
2016-04-04T00:33:47.948Z,0
2016-04-04T00:34:48.232Z,0
2016-04-04T00:35:48.609Z,0
2016-04-04T00:36:48.409Z,0
2016-04-04T00:38:02.305Z,0
2016-04-04T00:38:47.726Z,0
2016-04-04T00:40:48.716Z,0
2016-04-04T00:42:02.550Z,0
2016-04-04T00:42:48.441Z,0
2016-04-04T00:43:48.224Z,0
2016-04-04T00:44:48.477Z,0
2016-04-04T00:46:02.389Z,0
2016-04-04T00:46:48.233Z,0
2016-04-04T00:47:48.236Z,0
2016-04-04T00:48:48.425Z,0
2016-04-04T00:49:48.335Z,0
2016-04-04T00:50:48.446Z,0
2016-04-04T00:51:48.277Z,0
2016-04-04T00:52:48.280Z,0
2016-04-04T00:53:48.252Z,0
2016-04-04T00:54:48.269Z,0
2016-04-04T00:55:48.460Z,0
2016-04-04T00:56:48.697Z,0
2016-04-04T00:57:48.294Z,0
2016-04-04T00:58:48.296Z,0
2016-04-04T00:59:48.518Z,0
2016-04-04T01:00:48.317Z,0
2016-04-04T01:01:48.273Z,0
2016-04-04T01:02:47.807Z,0
2016-04-04T01:03:47.810Z,0
2016-04-04T01:04:48.438Z,0
2016-04-04T01:05:48.503Z,0
2016-04-04T01:06:48.552Z,0
2016-04-04T01:07:48.305Z,0
2016-04-04T01:08:47.855Z,0
2016-04-04T01:09:48.717Z,0
2016-04-04T01:10:48.313Z,0
2016-04-04T01:11:48.316Z,0
2016-04-04T01:12:48.334Z,0
2016-04-04T01:14:02.417Z,0
2016-04-04T01:14:48.323Z,0
2016-04-04T01:15:48.342Z,0
2016-04-04T01:16:48.345Z,0
2016-04-04T01:17:48.363Z,0
2016-04-04T01:18:48.584Z,0
2016-04-04T01:19:48.603Z,0
2016-04-04T01:20:48.589Z,0
2016-04-04T01:21:48.342Z,0
2016-04-04T01:22:48.392Z,0
2016-04-04T01:23:48.536Z,0
2016-04-04T01:24:48.789Z,0
2016-04-04T01:25:48.369Z,0
2016-04-04T01:27:03.280Z,0
2016-04-04T01:27:48.593Z,0
2016-04-04T01:28:48.361Z,0
2016-04-04T01:29:48.582Z,0
2016-04-04T01:30:48.601Z,0
2016-04-04T01:31:48.619Z,0
2016-04-04T01:32:48.841Z,0
2016-04-04T01:33:48.391Z,0
2016-04-04T01:34:48.815Z,0
2016-04-04T01:35:48.630Z,0
2016-04-04T01:36:48.415Z,0
2016-04-04T01:37:48.402Z,0
2016-04-04T01:38:48.435Z,0
2016-04-04T01:40:48.441Z,0
2016-04-04T01:42:02.946Z,0
2016-04-04T01:42:48.446Z,0
2016-04-04T01:43:48.339Z,0
2016-04-04T01:44:48.420Z,0
2016-04-04T01:45:48.423Z,0
2016-04-04T01:46:48.628Z,0
2016-04-04T01:48:02.524Z,0
2016-04-04T01:48:48.649Z,0
2016-04-04T01:50:48.467Z,0
2016-04-04T01:52:02.769Z,0
2016-04-04T01:52:48.457Z,0
2016-04-04T01:53:48.678Z,0
2016-04-04T01:54:48.884Z,0
2016-04-04T01:55:48.918Z,0
2016-04-04T01:56:48.515Z,0
2016-04-04T01:57:48.705Z,0
2016-04-04T01:58:48.676Z,0
2016-04-04T01:59:48.476Z,0
2016-04-04T02:00:48.468Z,0
2016-04-04T02:01:48.737Z,0
2016-04-04T02:02:48.490Z,0
2016-04-04T02:03:48.492Z,0
2016-04-04T02:05:02.809Z,0
2016-04-04T02:06:02.796Z,0
2016-04-04T02:06:48.718Z,0
2016-04-04T02:07:48.534Z,0
2016-04-04T02:08:48.536Z,0
2016-04-04T02:09:48.492Z,0
2016-04-04T02:10:48.526Z,0
2016-04-04T02:11:48.560Z,0
2016-04-04T02:12:48.500Z,0
2016-04-04T02:13:48.519Z,0
2016-04-04T02:14:48.740Z,0
2016-04-04T02:15:48.540Z,0
2016-04-04T02:16:48.980Z,0
2016-04-04T02:17:48.530Z,0
2016-04-04T02:18:48.063Z,0
2016-04-04T02:19:48.988Z,0
2016-04-04T02:22:48.965Z,0
2016-04-04T02:23:48.764Z,0
2016-04-04T02:24:48.955Z,0
2016-04-04T02:25:48.566Z,0
2016-04-04T02:26:48.038Z,0
2016-04-04T02:27:48.775Z,0
2016-04-04T02:28:48.106Z,0
2016-04-04T02:29:48.577Z,0
2016-04-04T02:30:48.580Z,0
2016-04-04T02:31:49.005Z,0
2016-04-04T02:32:49.054Z,0
2016-04-04T02:34:03.357Z,0
2016-04-04T02:34:48.622Z,0
2016-04-04T02:35:48.593Z,0
2016-04-04T02:36:48.581Z,0
2016-04-04T02:37:48.802Z,0
2016-04-04T02:38:48.601Z,0
2016-04-04T02:39:48.589Z,0
2016-04-04T02:40:48.607Z,0
2016-04-04T02:41:48.812Z,0
2016-04-04T02:42:50.706Z,0
2016-04-04T02:43:49.756Z,0
2016-04-04T02:44:49.884Z,0
2016-04-04T02:45:48.339Z,0
2016-04-04T02:46:48.654Z,0
2016-04-04T02:47:49.032Z,0
2016-04-04T02:48:48.659Z,0
2016-04-04T02:49:48.975Z,0
2016-04-04T02:50:49.086Z,0
2016-04-04T02:51:48.652Z,0
2016-04-04T02:52:49.061Z,0
2016-04-04T02:53:48.641Z,0
2016-04-04T02:54:48.644Z,0
2016-04-04T02:55:48.413Z,0
2016-04-04T02:57:03.165Z,0
2016-04-04T02:58:03.153Z,0
2016-04-04T02:58:49.093Z,0
2016-04-04T02:59:48.861Z,0
2016-04-04T03:00:48.848Z,0
2016-04-04T03:01:48.664Z,0
2016-04-04T03:03:02.791Z,0
2016-04-04T03:03:48.668Z,0
2016-04-04T03:04:49.094Z,0
2016-04-04T03:05:48.893Z,0
2016-04-04T03:06:48.865Z,0
2016-04-04T03:07:48.891Z,0
2016-04-04T03:08:49.519Z,0
2016-04-04T03:09:48.694Z,0
2016-04-04T03:11:48.715Z,0
2016-04-04T03:12:48.686Z,0
2016-04-04T03:13:48.720Z,0
2016-04-04T03:14:48.754Z,0
2016-04-04T03:15:48.710Z,0
2016-04-04T03:16:48.431Z,0
2016-04-04T03:17:48.715Z,0
2016-04-04T03:19:49.330Z,0
2016-04-04T03:21:49.148Z,0
2016-04-04T03:22:48.948Z,0
2016-04-04T03:23:49.278Z,0
2016-04-04T03:24:49.156Z,0
2016-04-04T03:25:48.768Z,0
2016-04-04T03:26:48.739Z,0
2016-04-04T03:27:48.742Z,0
2016-04-04T03:28:49.511Z,0
2016-04-04T03:29:49.169Z,0
2016-04-04T03:30:48.813Z,0
2016-04-04T03:31:48.800Z,0
2016-04-04T03:32:48.755Z,0
2016-04-04T03:33:49.571Z,0
2016-04-04T03:34:48.995Z,0
2016-04-04T03:35:49.155Z,0
2016-04-04T03:36:49.204Z,0
2016-04-04T03:37:48.753Z,0
2016-04-04T03:38:48.756Z,0
2016-04-04T03:40:03.072Z,0
2016-04-04T03:41:02.871Z,0
2016-04-04T03:41:48.763Z,0
2016-04-04T03:43:02.861Z,0
2016-04-04T03:43:48.301Z,0
2016-04-04T03:45:02.881Z,0
2016-04-04T03:45:48.775Z,0
2016-04-04T03:46:48.778Z,0
2016-04-04T03:47:49.202Z,0
2016-04-04T03:48:48.782Z,0
2016-04-04T03:49:49.146Z,0
2016-04-04T03:50:49.007Z,0
2016-04-04T03:51:48.806Z,0
2016-04-04T03:52:48.856Z,0
2016-04-04T03:53:48.828Z,0
2016-04-04T03:55:03.112Z,0
2016-04-04T03:56:02.911Z,0
2016-04-04T03:56:48.804Z,0
2016-04-04T03:57:48.854Z,0
2016-04-04T03:58:49.248Z,0
2016-04-04T03:59:48.859Z,0
2016-04-04T04:00:48.847Z,0
2016-04-04T04:01:49.037Z,0
2016-04-04T04:02:49.086Z,0
2016-04-04T04:03:48.870Z,0
2016-04-04T04:04:49.155Z,0
2016-04-04T04:05:48.828Z,0
2016-04-04T04:06:49.270Z,0
2016-04-04T04:08:03.257Z,0
2016-04-04T04:08:49.494Z,0
2016-04-04T04:09:48.965Z,0
2016-04-04T04:10:49.453Z,0
2016-04-04T04:11:48.908Z,0
2016-04-04T04:12:49.067Z,0
2016-04-04T04:13:48.851Z,0
2016-04-04T04:15:02.698Z,0
2016-04-04T04:15:48.872Z,0
2016-04-04T04:16:49.547Z,0
2016-04-04T04:17:49.331Z,0
2016-04-04T04:19:48.649Z,0
2016-04-04T04:20:49.260Z,0
2016-04-04T04:21:48.889Z,0
2016-04-04T04:22:48.938Z,0
2016-04-04T04:23:48.893Z,0
2016-04-04T04:24:48.913Z,0
2016-04-04T04:25:48.883Z,0
2016-04-04T04:26:48.418Z,0
2016-04-04T04:27:48.888Z,0
2016-04-04T04:28:48.892Z,5
2016-04-04T04:29:48.926Z,5
2016-04-04T04:30:48.943Z,5
2016-04-04T04:31:49.321Z,5
2016-04-04T04:32:49.089Z,5
2016-04-04T04:33:48.890Z,5
2016-04-04T04:34:48.267Z,10
2016-04-04T04:35:49.114Z,10
2016-04-04T04:36:48.913Z,10
2016-04-04T04:37:49.134Z,10
2016-04-04T04:38:49.137Z,10
2016-04-04T04:39:49.967Z,15
2016-04-04T04:40:48.940Z,15
2016-04-04T04:41:48.895Z,15
2016-04-04T04:42:48.961Z,15
2016-04-04T04:43:49.713Z,15
2016-04-04T04:44:49.591Z,15
2016-04-04T04:45:49.344Z,15
2016-04-04T04:46:48.939Z,20
2016-04-04T04:47:48.958Z,20
2016-04-04T04:48:49.164Z,20
2016-04-04T04:50:03.277Z,20
2016-04-04T04:50:48.966Z,25
2016-04-04T04:52:49.238Z,25
2016-04-04T04:53:48.958Z,30
2016-04-04T04:54:48.961Z,30
2016-04-04T04:55:48.948Z,30
2016-04-04T04:56:48.982Z,35
2016-04-04T04:57:49.173Z,35
2016-04-04T04:58:49.019Z,35
2016-04-04T04:59:48.959Z,40
2016-04-04T05:00:49.165Z,40
2016-04-04T05:01:49.605Z,40
2016-04-04T05:02:48.982Z,45
2016-04-04T05:03:49.190Z,45
2016-04-04T05:04:48.988Z,45
2016-04-04T05:05:49.210Z,50
2016-04-04T05:06:48.978Z,50
2016-04-04T05:07:48.981Z,50
2016-04-04T05:08:48.984Z,55
2016-04-04T05:09:49.189Z,60
2016-04-04T05:10:49.192Z,60
2016-04-04T05:11:49.053Z,65
2016-04-04T05:12:49.198Z,65
2016-04-04T05:14:49.483Z,70
2016-04-04T05:15:49.034Z,70
2016-04-04T05:16:49.428Z,75
2016-04-04T05:17:49.242Z,75
2016-04-04T05:18:49.010Z,80
2016-04-04T05:19:49.342Z,85
2016-04-04T05:20:49.047Z,85
2016-04-04T05:21:49.424Z,90
2016-04-04T05:22:49.036Z,95
2016-04-04T05:23:49.071Z,100
2016-04-04T05:24:49.339Z,100
2016-04-04T05:25:49.123Z,105
2016-04-04T05:27:03.178Z,110
2016-04-04T05:27:49.894Z,110
2016-04-04T05:28:49.052Z,115
2016-04-04T05:29:49.259Z,120
2016-04-04T05:30:49.262Z,120
2016-04-04T05:31:48.593Z,125
2016-04-04T05:32:49.251Z,120
2016-04-04T05:33:49.254Z,125
2016-04-04T05:34:48.693Z,130
2016-04-04T05:35:48.790Z,135
2016-04-04T05:36:49.293Z,140
2016-04-04T05:37:49.265Z,145
2016-04-04T05:39:03.565Z,150
2016-04-04T05:40:03.161Z,155
2016-04-04T05:40:49.507Z,160
2016-04-04T05:41:49.119Z,170
2016-04-04T05:42:49.075Z,165
2016-04-04T05:43:49.312Z,170
2016-04-04T05:44:49.252Z,175
2016-04-04T05:45:49.099Z,185
2016-04-04T05:46:49.367Z,180
2016-04-04T05:47:49.323Z,180
2016-04-04T05:48:49.092Z,185
2016-04-04T05:49:49.203Z,185
2016-04-04T05:50:49.128Z,185
2016-04-04T05:51:49.177Z,185
2016-04-04T05:52:49.446Z,185
2016-04-04T05:53:49.166Z,185
2016-04-04T05:54:49.108Z,185
2016-04-04T05:55:49.125Z,185
2016-04-04T05:56:49.690Z,185
2016-04-04T05:57:49.163Z,185
2016-04-04T05:58:49.353Z,185
2016-04-04T05:59:49.543Z,185
2016-04-04T06:00:49.404Z,185
2016-04-04T06:01:49.188Z,190
2016-04-04T06:02:48.426Z,185
2016-04-04T06:03:49.350Z,185
2016-04-04T06:04:48.603Z,185
2016-04-04T06:05:49.434Z,185
2016-04-04T06:06:49.405Z,180
2016-04-04T06:08:03.298Z,180
2016-04-04T06:08:50.098Z,180
2016-04-04T06:10:03.304Z,175
2016-04-04T06:10:49.415Z,175
2016-04-04T06:12:03.309Z,170
2016-04-04T06:12:49.203Z,170
2016-04-04T06:13:49.267Z,165
2016-04-04T06:14:49.239Z,165
2016-04-04T06:15:49.445Z,160
2016-04-04T06:16:49.228Z,160
2016-04-04T06:17:49.559Z,160
2016-04-04T06:18:49.250Z,160
2016-04-04T06:20:17.458Z,160
2016-04-04T06:21:03.771Z,165
2016-04-04T06:22:03.352Z,165
2016-04-04T06:22:49.480Z,170
2016-04-04T06:23:49.888Z,175
2016-04-04T06:24:49.266Z,180
2016-04-04T06:25:49.299Z,185
2016-04-04T06:26:49.287Z,185
2016-04-04T06:27:49.477Z,195
2016-04-04T06:28:49.307Z,200
2016-04-04T06:29:49.311Z,205
2016-04-04T06:30:49.298Z,205
2016-04-04T06:31:49.332Z,210
2016-04-04T06:32:49.506Z,210
2016-04-04T06:33:49.307Z,210
2016-04-04T06:35:03.809Z,210
2016-04-04T06:35:49.326Z,210
2016-04-04T06:36:49.518Z,215
2016-04-04T06:37:49.348Z,220
2016-04-04T06:38:49.601Z,225
2016-04-04T06:39:49.353Z,240
2016-04-04T06:40:49.403Z,240
2016-04-04T06:41:49.562Z,250
2016-04-04T06:42:49.361Z,255
2016-04-04T06:43:49.426Z,265
2016-04-04T06:44:49.382Z,270
2016-04-04T06:45:49.385Z,270
2016-04-04T06:46:49.387Z,280
2016-04-04T06:47:49.406Z,285
2016-04-04T06:48:49.425Z,290
2016-04-04T06:49:48.942Z,295
2016-04-04T06:50:49.664Z,300
2016-04-04T06:51:49.838Z,300
2016-04-04T06:52:49.482Z,295
2016-04-04T06:53:49.438Z,290
2016-04-04T06:54:49.488Z,290
2016-04-04T06:55:49.661Z,285
2016-04-04T06:57:03.758Z,270
2016-04-04T06:57:49.386Z,265
2016-04-04T06:58:49.482Z,260
2016-04-04T06:59:49.688Z,260
2016-04-04T07:00:49.508Z,255
2016-04-04T07:01:49.902Z,255
2016-04-04T07:03:03.810Z,255
2016-04-04T07:03:49.563Z,255
2016-04-04T07:04:48.956Z,265
2016-04-04T07:05:49.522Z,270
2016-04-04T07:06:49.274Z,275
2016-04-04T07:07:49.762Z,275
2016-04-04T07:08:50.373Z,280
2016-04-04T07:09:49.095Z,290
2016-04-04T07:10:49.784Z,290
2016-04-04T07:11:49.631Z,295
2016-04-04T07:12:49.837Z,300
2016-04-04T07:13:49.589Z,300
2016-04-04T07:14:49.593Z,305
2016-04-04T07:15:49.595Z,305
2016-04-04T07:16:49.629Z,300
2016-04-04T07:18:49.853Z,295
2016-04-04T07:19:50.294Z,295
2016-04-04T07:20:49.890Z,295
2016-04-04T07:21:49.847Z,300
2016-04-04T07:22:49.692Z,300
2016-04-04T07:24:03.789Z,305
2016-04-04T07:25:03.994Z,310
2016-04-04T07:25:49.685Z,315
2016-04-04T07:26:49.735Z,320
2016-04-04T07:27:49.910Z,330
2016-04-04T07:28:49.740Z,335
2016-04-04T07:29:49.710Z,345
2016-04-04T07:30:49.761Z,350
2016-04-04T07:33:49.768Z,360
2016-04-04T07:34:49.788Z,360
2016-04-04T07:35:49.789Z,370
2016-04-04T07:36:49.793Z,365
2016-04-04T07:37:49.842Z,355
2016-04-04T07:39:03.907Z,365
2016-04-04T07:39:49.848Z,365
2016-04-04T07:40:50.038Z,365
2016-04-04T07:41:49.853Z,365
2016-04-04T07:42:49.886Z,365
2016-04-04T07:43:49.874Z,370
2016-04-04T07:44:49.815Z,365
2016-04-04T07:45:49.879Z,365
2016-04-04T07:46:49.866Z,370
2016-04-04T07:47:50.119Z,370
2016-04-04T07:48:50.325Z,370
2016-04-04T07:49:49.656Z,370
2016-04-04T07:50:49.908Z,360
2016-04-04T07:51:50.114Z,360
2016-04-04T07:53:04.444Z,355
2016-04-04T07:53:49.933Z,355
2016-04-04T07:54:50.138Z,350
2016-04-04T07:56:50.003Z,345
2016-04-04T07:57:50.208Z,340
2016-04-04T07:58:50.024Z,335
2016-04-04T07:59:50.213Z,330
2016-04-04T08:00:49.498Z,335
2016-04-04T08:01:50.015Z,330
2016-04-04T08:02:50.035Z,330
2016-04-04T08:03:50.021Z,330
2016-04-04T08:04:50.118Z,330
2016-04-04T08:05:50.512Z,335
2016-04-04T08:07:04.358Z,340
2016-04-04T08:07:50.063Z,340
2016-04-04T08:08:50.097Z,345
2016-04-04T08:09:50.131Z,345
2016-04-04T08:10:50.103Z,350
2016-04-04T08:11:53.106Z,350
2016-04-04T08:12:50.311Z,355
2016-04-04T08:13:50.329Z,365
2016-04-04T08:14:49.644Z,375
2016-04-04T08:15:50.366Z,385
2016-04-04T08:16:50.181Z,390
2016-04-04T08:17:50.153Z,400
2016-04-04T08:18:50.375Z,405
2016-04-04T08:19:50.939Z,405
2016-04-04T08:21:04.505Z,410
2016-04-04T08:21:50.633Z,415
2016-04-04T08:22:50.447Z,415
2016-04-04T08:23:50.263Z,420
2016-04-04T08:24:50.266Z,420
2016-04-04T08:25:50.237Z,425
2016-04-04T08:26:50.255Z,430
2016-04-04T08:27:50.477Z,430
2016-04-04T08:28:50.541Z,435
2016-04-04T08:29:50.483Z,435
2016-04-04T08:30:50.297Z,440
2016-04-04T08:31:50.503Z,440
2016-04-04T08:32:50.568Z,440
2016-04-04T08:33:49.842Z,450
2016-04-04T08:34:50.833Z,450
2016-04-04T08:35:50.309Z,460
2016-04-04T08:36:50.534Z,460
2016-04-04T08:37:50.336Z,465
2016-04-04T08:38:50.334Z,470
2016-04-04T08:39:50.614Z,480
2016-04-04T08:40:50.580Z,485
2016-04-04T08:41:50.329Z,490
2016-04-04T08:42:50.343Z,495
2016-04-04T08:43:50.360Z,495
2016-04-04T08:44:50.408Z,495
2016-04-04T08:45:50.660Z,490
2016-04-04T08:47:04.676Z,485
2016-04-04T08:47:50.426Z,480
2016-04-04T08:48:50.648Z,475
2016-04-04T08:49:51.008Z,470
2016-04-04T08:50:50.495Z,465
2016-04-04T08:51:50.653Z,460
2016-04-04T08:52:50.671Z,460
2016-04-04T08:53:50.704Z,460
2016-04-04T08:54:50.488Z,460
2016-04-04T08:55:50.490Z,460
2016-04-04T08:56:50.539Z,460
2016-04-04T08:58:04.650Z,460
2016-04-04T08:58:50.560Z,465
2016-04-04T08:59:50.969Z,465
2016-04-04T09:00:50.566Z,460
2016-04-04T09:01:51.021Z,460
2016-04-04T09:02:50.788Z,460
2016-04-04T09:03:50.792Z,465
2016-04-04T09:04:50.654Z,465
2016-04-04T09:05:50.657Z,460
2016-04-04T09:07:04.784Z,460
2016-04-04T09:07:50.865Z,460
2016-04-04T09:08:50.868Z,460
2016-04-04T09:09:50.871Z,460
2016-04-04T09:10:50.717Z,465
2016-04-04T09:11:50.923Z,470
2016-04-04T09:12:50.690Z,470
2016-04-04T09:13:51.115Z,465
2016-04-04T09:14:51.149Z,465
2016-04-04T09:15:50.731Z,465
2016-04-04T09:16:50.951Z,465
2016-04-04T09:17:50.767Z,470
2016-04-04T09:18:50.801Z,480
2016-04-04T09:20:04.881Z,475
2016-04-04T09:20:50.587Z,480
2016-04-04T09:21:50.809Z,480
2016-04-04T09:22:51.264Z,485
2016-04-04T09:23:50.861Z,490
2016-04-04T09:24:50.864Z,495
2016-04-04T09:25:50.883Z,495
2016-04-04T09:28:05.434Z,505
2016-04-04T09:28:50.937Z,505
2016-04-04T09:29:51.330Z,510
2016-04-04T09:30:50.942Z,515
2016-04-04T09:31:51.195Z,515
2016-04-04T09:32:50.994Z,520
2016-04-04T09:33:51.013Z,525
2016-04-04T09:34:51.297Z,520
2016-04-04T09:35:51.034Z,520
2016-04-04T09:36:51.240Z,520
2016-04-04T09:37:51.086Z,520
2016-04-04T09:38:51.308Z,515
2016-04-04T09:40:05.373Z,510
2016-04-04T09:40:51.344Z,505
2016-04-04T09:42:05.393Z,500
2016-04-04T09:42:51.131Z,495
2016-04-04T09:43:53.946Z,490
2016-04-04T09:44:53.949Z,490
2016-04-04T09:45:53.702Z,490
2016-04-04T09:46:54.595Z,480
2016-04-04T09:47:53.862Z,475
2016-04-04T09:48:56.601Z,470
2016-04-04T09:50:09.198Z,465
2016-04-04T09:50:55.731Z,465
2016-04-04T09:51:51.467Z,465
2016-04-04T09:52:51.501Z,465
2016-04-04T09:53:54.988Z,460
2016-04-04T09:54:55.241Z,460
2016-04-04T09:55:53.651Z,460
2016-04-04T09:56:55.731Z,460
2016-04-04T09:57:53.937Z,455
2016-04-04T09:58:55.236Z,460
2016-04-04T09:59:55.083Z,460
2016-04-04T10:00:56.336Z,465
2016-04-04T10:01:51.386Z,465
2016-04-04T10:02:51.420Z,465
2016-04-04T10:03:51.391Z,460
2016-04-04T10:04:51.346Z,455
2016-04-04T10:05:51.865Z,455
2016-04-04T10:06:51.696Z,450
2016-04-04T10:07:51.480Z,445
2016-04-04T10:08:51.685Z,440
2016-04-04T10:09:51.505Z,440
2016-04-04T10:11:05.617Z,435
2016-04-04T10:11:51.574Z,425
2016-04-04T10:12:51.748Z,420
2016-04-04T10:13:51.938Z,410
2016-04-04T10:14:51.800Z,405
2016-04-04T10:15:51.568Z,400
2016-04-04T10:16:51.790Z,395
2016-04-04T10:17:51.809Z,385
2016-04-04T10:18:51.639Z,385
2016-04-04T10:19:51.486Z,375
2016-04-04T10:21:05.941Z,370
2016-04-04T10:21:52.053Z,375
2016-04-04T10:22:51.197Z,370
2016-04-04T10:23:51.684Z,370
2016-04-04T10:24:51.717Z,365
2016-04-04T10:25:51.720Z,355
2016-04-04T10:26:51.739Z,345
2016-04-04T10:27:51.992Z,340
2016-04-04T10:28:51.338Z,345
2016-04-04T10:29:51.997Z,345
2016-04-04T10:31:05.936Z,350
2016-04-04T10:31:52.033Z,350
2016-04-04T10:32:52.098Z,350
2016-04-04T10:33:52.070Z,345
2016-04-04T10:34:51.917Z,350
2016-04-04T10:35:51.872Z,360
2016-04-04T10:36:51.906Z,375
2016-04-04T10:37:51.955Z,395
2016-04-04T10:39:51.929Z,435
2016-04-04T10:40:51.964Z,450
2016-04-04T10:41:51.966Z,470
2016-04-04T10:42:51.969Z,480
2016-04-04T10:43:51.815Z,480
2016-04-04T10:44:52.021Z,490
2016-04-04T10:45:52.243Z,490
2016-04-04T10:46:52.262Z,490
2016-04-04T10:48:06.139Z,490
2016-04-04T10:48:52.064Z,485
2016-04-04T10:49:52.206Z,490
2016-04-04T10:50:52.397Z,490
2016-04-04T10:51:52.556Z,505
2016-04-04T10:52:52.543Z,520
2016-04-04T10:53:52.342Z,550
2016-04-04T10:54:52.142Z,560
2016-04-04T10:55:52.175Z,570
2016-04-04T10:56:52.194Z,580
2016-04-04T10:57:52.384Z,585
2016-04-04T10:58:52.200Z,590
2016-04-04T10:59:51.827Z,595
2016-04-04T11:00:52.455Z,600
2016-04-04T11:01:52.442Z,600
2016-04-04T11:02:52.445Z,610
2016-04-04T11:03:52.260Z,620
2016-04-04T11:04:52.841Z,620
2016-04-04T11:06:06.624Z,605
2016-04-04T11:07:20.505Z,590
2016-04-04T11:07:52.927Z,575
2016-04-04T11:08:52.362Z,570
2016-04-04T11:09:52.598Z,565
2016-04-04T11:11:06.710Z,560
2016-04-04T11:11:52.587Z,560
2016-04-04T11:12:52.700Z,555
2016-04-04T11:13:52.406Z,550
2016-04-04T11:14:52.659Z,545
2016-04-04T11:15:52.427Z,540
2016-04-04T11:16:52.914Z,530
2016-04-04T11:17:52.479Z,525
2016-04-04T11:18:52.920Z,525
2016-04-04T11:19:52.875Z,515
2016-04-04T11:20:52.737Z,510
2016-04-04T11:21:52.553Z,505
2016-04-04T11:22:52.978Z,495
2016-04-04T11:23:52.777Z,490
2016-04-04T11:24:52.577Z,490
2016-04-04T11:25:52.595Z,495
2016-04-04T11:26:52.597Z,500
2016-04-04T11:27:52.663Z,510
2016-04-04T11:28:53.306Z,510
2016-04-04T11:29:52.652Z,500
2016-04-04T11:30:52.655Z,495
2016-04-04T11:31:52.704Z,490
2016-04-04T11:32:52.723Z,485
2016-04-04T11:33:52.709Z,475
2016-04-04T11:34:52.993Z,470
2016-04-04T11:35:52.965Z,475
2016-04-04T11:36:52.889Z,465
2016-04-04T11:37:52.986Z,460
2016-04-04T11:38:52.838Z,445
2016-04-04T11:39:53.387Z,440
2016-04-04T11:40:52.843Z,430
2016-04-04T11:42:07.330Z,425
2016-04-04T11:42:52.708Z,415
2016-04-04T11:43:52.882Z,400
2016-04-04T11:44:53.119Z,390
2016-04-04T11:45:53.497Z,375
2016-04-04T11:47:06.999Z,365
2016-04-04T11:47:53.346Z,355
2016-04-04T11:49:07.239Z,350
2016-04-04T11:49:53.538Z,350
2016-04-04T11:50:52.963Z,350
2016-04-04T11:51:52.966Z,345
2016-04-04T11:53:07.328Z,345
2016-04-04T11:53:53.221Z,335
2016-04-04T11:54:53.428Z,335
2016-04-04T11:55:53.039Z,325
2016-04-04T11:56:53.042Z,325
2016-04-04T11:58:07.170Z,310
2016-04-04T11:59:53.113Z,300
2016-04-04T12:00:53.349Z,295
2016-04-04T12:01:53.384Z,295
2016-04-04T12:02:53.168Z,285
2016-04-04T12:03:53.185Z,285
2016-04-04T12:04:53.313Z,285
2016-04-04T12:05:53.237Z,285
2016-04-04T12:06:53.615Z,285
2016-04-04T12:07:53.228Z,280
2016-04-04T12:08:53.589Z,280
2016-04-04T12:09:53.281Z,275
2016-04-04T12:10:53.283Z,270
2016-04-04T12:11:53.536Z,265
2016-04-04T12:12:53.289Z,260
2016-04-04T12:13:53.542Z,255
2016-04-04T12:14:53.372Z,250
2016-04-04T12:15:53.343Z,250
2016-04-04T12:16:53.361Z,250
2016-04-04T12:17:53.364Z,250
2016-04-04T12:18:53.398Z,240
2016-04-04T12:19:53.541Z,255
2016-04-04T12:20:53.436Z,255
2016-04-04T12:21:53.438Z,260
2016-04-04T12:22:53.456Z,265
2016-04-04T12:23:53.490Z,270
2016-04-04T12:24:53.461Z,280
2016-04-04T12:25:53.527Z,285
2016-04-04T12:26:53.530Z,285
2016-04-04T12:27:53.750Z,290
2016-04-04T12:28:53.378Z,295
2016-04-04T12:29:53.584Z,300
2016-04-04T12:30:53.540Z,300
2016-04-04T12:32:07.683Z,305
2016-04-04T12:32:53.592Z,305
2016-04-04T12:33:53.641Z,305
2016-04-04T12:34:53.925Z,305
2016-04-04T12:35:53.631Z,300
2016-04-04T12:36:53.681Z,300
2016-04-04T12:37:53.871Z,295
2016-04-04T12:38:53.686Z,295
2016-04-04T12:39:54.487Z,290
2016-04-04T12:40:53.707Z,290
2016-04-04T12:41:54.117Z,290
2016-04-04T12:42:53.760Z,290
2016-04-04T12:43:53.731Z,290
2016-04-04T12:44:53.765Z,295
2016-04-04T12:45:53.970Z,295
2016-04-04T12:46:53.786Z,300
2016-04-04T12:47:53.836Z,305
2016-04-04T12:48:53.806Z,310
2016-04-04T12:49:54.122Z,320
2016-04-04T12:50:53.375Z,325
2016-04-04T12:51:54.143Z,330
2016-04-04T12:52:53.396Z,330
2016-04-04T12:53:54.132Z,335
2016-04-04T12:54:54.135Z,335
2016-04-04T12:55:53.950Z,330
2016-04-04T12:56:53.984Z,330
2016-04-04T12:57:53.956Z,325
2016-04-04T12:58:53.958Z,325
2016-04-04T12:59:53.977Z,330
2016-04-04T13:00:53.543Z,340
2016-04-04T13:01:54.233Z,350
2016-04-04T13:02:54.673Z,365
2016-04-04T13:04:08.144Z,385
2016-04-04T13:04:54.443Z,395
2016-04-04T13:06:54.090Z,415
2016-04-04T13:07:53.357Z,420
2016-04-04T13:08:54.330Z,420
2016-04-04T13:09:54.520Z,415
2016-04-04T13:11:08.241Z,405
2016-04-04T13:11:54.135Z,405
2016-04-04T13:12:54.575Z,395
2016-04-04T13:13:54.171Z,390
2016-04-04T13:14:54.189Z,380
2016-04-04T13:15:54.223Z,375
2016-04-04T13:16:54.257Z,365
2016-04-04T13:17:54.275Z,360
2016-04-04T13:18:54.247Z,355
2016-04-04T13:19:54.484Z,350
2016-04-04T13:20:54.502Z,350
2016-04-04T13:22:08.427Z,340
2016-04-04T13:22:54.913Z,340
2016-04-04T13:23:54.338Z,340
2016-04-04T13:24:54.513Z,335
2016-04-04T13:25:54.360Z,335
2016-04-04T13:26:54.362Z,330
2016-04-04T13:28:08.491Z,330
2016-04-04T13:28:54.649Z,330
2016-04-04T13:29:54.621Z,330
2016-04-04T13:30:54.420Z,330
2016-04-04T13:31:54.297Z,330
2016-04-04T13:32:55.925Z,330
2016-04-04T13:33:56.382Z,325
2016-04-04T13:34:54.727Z,325
2016-04-04T13:35:54.527Z,320
2016-04-04T13:36:54.529Z,320
2016-04-04T13:37:54.548Z,325
2016-04-04T13:38:55.082Z,320
2016-04-04T13:39:56.443Z,325
2016-04-04T13:40:54.868Z,325
2016-04-04T13:41:55.355Z,325
2016-04-04T13:42:54.936Z,320
2016-04-04T13:43:54.923Z,320
2016-04-04T13:44:55.301Z,320
2016-04-04T13:45:55.069Z,325
2016-04-04T13:46:55.009Z,330
2016-04-04T13:47:54.794Z,335
2016-04-04T13:48:55.015Z,345
2016-04-04T13:49:54.596Z,355
2016-04-04T13:51:09.489Z,365
2016-04-04T13:51:55.008Z,370
2016-04-04T13:52:55.308Z,380
2016-04-04T13:53:55.263Z,395
2016-04-04T13:54:55.266Z,400
2016-04-04T13:55:54.799Z,410
2016-04-04T13:56:55.380Z,420
2016-04-04T13:57:54.367Z,425
2016-04-04T13:58:54.682Z,425
2016-04-04T14:00:09.716Z,425
2016-04-04T14:00:54.766Z,425
2016-04-04T14:01:55.503Z,420
2016-04-04T14:02:55.413Z,420
2016-04-04T14:03:55.352Z,420
2016-04-04T14:04:55.308Z,420
2016-04-04T14:05:55.498Z,420
2016-04-04T14:06:55.751Z,425
2016-04-04T14:07:55.301Z,425
2016-04-04T14:08:55.490Z,430
2016-04-04T14:09:55.212Z,440
2016-04-04T14:10:55.512Z,450
2016-04-04T14:12:02.467Z,460
2016-04-04T14:12:55.454Z,475
2016-04-04T14:13:55.176Z,490
2016-04-04T14:15:55.165Z,525
2016-04-04T14:16:55.528Z,530
2016-04-04T14:17:55.420Z,540
2016-04-04T14:18:55.253Z,540
2016-04-04T14:20:11.364Z,535
2016-04-04T14:20:56.492Z,525
2016-04-04T14:21:55.401Z,525
2016-04-04T14:22:55.434Z,520
2016-04-04T14:23:56.172Z,515
2016-04-04T14:24:55.408Z,500
2016-04-04T14:25:55.396Z,500
2016-04-04T14:26:55.914Z,505